createdAt,value
2022-11-19T00:00:38.438Z,43.79
2022-11-19T00:01:40.870Z,43.79
2022-11-19T00:02:43.167Z,43.79
2022-11-19T00:03:49.889Z,43.79
2022-11-19T00:04:49.765Z,43.78
2022-11-19T00:05:52.405Z,43.77
2022-11-19T00:06:55.609Z,43.76
2022-11-19T00:07:59.265Z,43.73
2022-11-19T00:09:01.407Z,43.72
2022-11-19T00:10:04.816Z,43.68
2022-11-19T00:11:11.824Z,43.71
2022-11-19T00:12:13.947Z,43.70
2022-11-19T00:13:17.296Z,43.66
2022-11-19T00:14:20.119Z,43.61
2022-11-19T00:15:22.586Z,43.58
2022-11-19T00:16:24.699Z,43.53
2022-11-19T00:17:27.900Z,43.55
2022-11-19T00:18:30.043Z,43.55
2022-11-19T00:19:32.118Z,43.53
2022-11-19T00:20:35.031Z,43.53
2022-11-19T00:21:38.989Z,43.50
2022-11-19T00:22:41.410Z,43.46
2022-11-19T00:23:44.463Z,43.42
2022-11-19T00:24:46.562Z,43.37
2022-11-19T00:25:49.674Z,43.38
2022-11-19T00:26:51.922Z,43.36
2022-11-19T00:27:55.941Z,43.33
2022-11-19T00:28:58.002Z,43.33
2022-11-19T00:29:59.993Z,43.32
2022-11-19T00:31:06.902Z,43.29
2022-11-19T00:32:10.806Z,43.26
2022-11-19T00:33:13.655Z,43.24
2022-11-19T00:34:17.041Z,43.23
2022-11-19T00:35:20.010Z,43.18
2022-11-19T00:36:23.114Z,43.17
2022-11-19T00:37:25.980Z,43.19
2022-11-19T00:38:28.650Z,43.13
2022-11-19T00:39:31.466Z,43.12
2022-11-19T00:40:34.311Z,43.08
2022-11-19T00:41:36.314Z,43.06
2022-11-19T00:42:39.035Z,43.06
2022-11-19T00:43:41.587Z,43.04
2022-11-19T00:44:44.577Z,43.03
2022-11-19T00:45:47.092Z,43.02
2022-11-19T00:46:49.665Z,43.07
2022-11-19T00:47:51.748Z,43.04
2022-11-19T00:48:55.056Z,43.06
2022-11-19T00:49:57.179Z,43.04
2022-11-19T00:50:59.727Z,43.01
2022-11-19T00:52:02.519Z,43.03
2022-11-19T00:53:04.595Z,43.01
2022-11-19T00:54:07.564Z,42.98
2022-11-19T00:55:09.734Z,42.96
2022-11-19T00:56:13.494Z,42.96
2022-11-19T00:57:16.053Z,42.95
2022-11-19T00:58:18.620Z,42.90
2022-11-19T00:59:21.422Z,42.86
2022-11-19T01:00:23.948Z,42.85
2022-11-19T01:01:26.133Z,42.85
2022-11-19T01:02:28.297Z,42.84
2022-11-19T01:03:30.593Z,42.83
2022-11-19T01:04:32.679Z,42.80
2022-11-19T01:05:34.811Z,42.78
2022-11-19T01:06:36.974Z,42.74
2022-11-19T01:07:39.007Z,42.76
2022-11-19T01:08:42.132Z,42.74
2022-11-19T01:09:45.125Z,42.77
2022-11-19T01:10:47.688Z,42.76
2022-11-19T01:11:50.655Z,42.77
2022-11-19T01:12:52.645Z,42.72
2022-11-19T01:13:55.068Z,42.72
2022-11-19T01:14:57.151Z,42.72
2022-11-19T01:15:59.468Z,42.68
2022-11-19T01:17:01.674Z,42.67
2022-11-19T01:18:03.926Z,42.66
2022-11-19T01:19:08.426Z,42.61
2022-11-19T01:20:11.687Z,42.59
2022-11-19T01:21:14.322Z,42.55
2022-11-19T01:22:16.417Z,42.54
2022-11-19T01:23:19.862Z,42.51
2022-11-19T01:24:21.900Z,42.52
2022-11-19T01:25:24.039Z,42.54
2022-11-19T01:26:27.445Z,42.55
2022-11-19T01:27:30.301Z,42.49
2022-11-19T01:28:32.528Z,42.50
2022-11-19T01:29:35.621Z,42.50
2022-11-19T01:30:41.550Z,42.47
2022-11-19T01:31:43.683Z,42.43
2022-11-19T01:32:45.764Z,42.44
2022-11-19T01:33:49.081Z,42.45
2022-11-19T01:34:51.206Z,42.43
2022-11-19T01:36:01.363Z,42.43
2022-11-19T01:37:03.493Z,42.43
2022-11-19T01:38:06.618Z,42.41
2022-11-19T01:39:08.903Z,42.37
2022-11-19T01:40:12.956Z,42.36
2022-11-19T01:41:14.979Z,42.34
2022-11-19T01:43:53.588Z,42.32
2022-11-19T01:45:02.152Z,42.26
2022-11-19T01:46:04.390Z,42.30
2022-11-19T01:47:07.522Z,42.27
2022-11-19T01:48:21.568Z,42.30
2022-11-19T01:49:23.775Z,42.31
2022-11-19T01:50:26.197Z,42.28
2022-11-19T01:51:31.364Z,42.27
2022-11-19T01:52:33.614Z,42.28
2022-11-19T01:53:35.885Z,42.27
2022-11-19T01:55:53.147Z,42.28
2022-11-19T01:56:58.320Z,42.27
2022-11-19T01:58:00.467Z,42.28
2022-11-19T01:59:04.748Z,42.26
2022-11-19T02:00:08.448Z,42.27
2022-11-19T02:01:11.454Z,42.26
2022-11-19T02:02:14.555Z,42.26
2022-11-19T02:03:16.732Z,42.22
2022-11-19T02:04:19.135Z,42.21
2022-11-19T02:05:21.209Z,42.19
2022-11-19T02:06:23.556Z,42.20
2022-11-19T02:07:27.595Z,42.20
2022-11-19T02:09:52.963Z,42.14
2022-11-19T02:10:58.573Z,42.10
2022-11-19T02:12:19.349Z,42.14
2022-11-19T02:13:25.234Z,42.11
2022-11-19T02:15:04.667Z,42.07
2022-11-19T02:16:19.604Z,42.04
2022-11-19T02:18:00.501Z,42.04
2022-11-19T02:20:46.174Z,42.04
2022-11-19T02:23:16.027Z,42.10
2022-11-19T02:24:43.241Z,42.13
2022-11-19T02:26:10.557Z,42.15
2022-11-19T02:27:19.277Z,42.15
2022-11-19T02:30:07.389Z,42.17
2022-11-19T02:31:31.869Z,42.15
2022-11-19T02:32:58.383Z,42.20
2022-11-19T02:34:09.937Z,42.19
2022-11-19T02:35:15.768Z,42.17
2022-11-19T02:36:27.863Z,42.17
2022-11-19T02:37:34.901Z,42.18
2022-11-19T02:38:43.428Z,42.16
2022-11-19T02:41:06.376Z,42.11
2022-11-19T02:42:18.122Z,42.12
2022-11-19T02:43:23.631Z,42.16
2022-11-19T02:44:35.021Z,42.13
2022-11-19T02:47:06.103Z,42.09
2022-11-19T02:48:17.520Z,42.09
2022-11-19T02:49:21.413Z,42.13
2022-11-19T02:50:50.666Z,42.12
2022-11-19T02:51:53.151Z,42.16
2022-11-19T02:52:56.792Z,42.16
2022-11-19T02:54:00.025Z,42.17
2022-11-19T02:55:02.151Z,42.17
2022-11-19T02:57:24.370Z,42.18
2022-11-19T02:58:26.940Z,42.19
2022-11-19T03:00:48.121Z,42.36
2022-11-19T03:01:50.169Z,42.54
2022-11-19T03:02:55.660Z,42.71
2022-11-19T03:03:57.678Z,42.76
2022-11-19T03:05:00.594Z,42.86
2022-11-19T03:06:06.495Z,42.93
2022-11-19T03:08:23.230Z,42.99
2022-11-19T03:09:26.707Z,43.07
2022-11-19T03:11:51.300Z,43.15
2022-11-19T03:13:00.359Z,43.22
2022-11-19T03:14:19.419Z,43.27
2022-11-19T03:15:34.150Z,43.30
2022-11-19T03:18:16.639Z,43.34
2022-11-19T03:19:38.743Z,43.39
2022-11-19T03:20:50.468Z,43.44
2022-11-19T03:23:23.440Z,43.54
2022-11-19T03:25:44.844Z,43.63
2022-11-19T03:26:59.814Z,43.62
2022-11-19T03:28:06.943Z,43.69
2022-11-19T03:29:10.628Z,43.79
2022-11-19T03:30:13.945Z,43.79
2022-11-19T03:31:17.605Z,43.77
2022-11-19T03:33:38.466Z,43.79
2022-11-19T03:34:41.007Z,43.83
2022-11-19T03:35:49.128Z,43.83
2022-11-19T03:36:52.159Z,43.87
2022-11-19T03:37:56.661Z,43.90
2022-11-19T03:39:01.870Z,43.91
2022-11-19T03:40:05.200Z,43.99
2022-11-19T03:41:07.369Z,44.05
2022-11-19T03:42:10.901Z,44.10
2022-11-19T03:43:13.178Z,44.08
2022-11-19T03:44:18.373Z,44.08
2022-11-19T03:45:24.122Z,44.12
2022-11-19T03:46:28.290Z,44.21
2022-11-19T03:47:33.424Z,44.28
2022-11-19T03:48:35.947Z,44.30
2022-11-19T03:49:39.939Z,44.30
2022-11-19T03:50:54.232Z,44.35
2022-11-19T03:52:05.868Z,44.24
2022-11-19T03:53:08.224Z,44.27
2022-11-19T03:54:10.596Z,44.18
2022-11-19T03:55:12.680Z,44.20
2022-11-19T03:56:17.773Z,44.19
2022-11-19T03:57:20.809Z,44.17
2022-11-19T03:58:24.231Z,44.25
2022-11-19T03:59:29.697Z,44.28
2022-11-19T04:00:30.753Z,44.25
2022-11-19T04:01:33.279Z,44.32
2022-11-19T04:02:35.447Z,44.34
2022-11-19T04:03:38.388Z,44.33
2022-11-19T04:04:40.972Z,44.45
2022-11-19T04:05:43.066Z,44.53
2022-11-19T04:06:45.141Z,44.50
2022-11-19T04:07:47.228Z,44.39
2022-11-19T04:08:49.220Z,44.39
2022-11-19T04:09:51.705Z,44.41
2022-11-19T04:10:54.036Z,44.38
2022-11-19T04:11:56.680Z,44.36
2022-11-19T04:12:59.089Z,44.35
2022-11-19T04:14:01.375Z,44.36
2022-11-19T04:15:05.853Z,44.36
2022-11-19T04:16:10.492Z,44.36
2022-11-19T04:17:13.139Z,44.37
2022-11-19T04:18:15.254Z,44.38
2022-11-19T04:19:17.889Z,44.43
2022-11-19T04:20:20.979Z,44.47
2022-11-19T04:21:23.117Z,44.51
2022-11-19T04:22:25.671Z,44.48
2022-11-19T04:23:27.755Z,44.49
2022-11-19T04:24:29.752Z,44.49
2022-11-19T04:25:32.963Z,44.49
2022-11-19T04:26:35.138Z,44.48
2022-11-19T04:27:37.238Z,44.49
2022-11-19T04:28:39.466Z,44.52
2022-11-19T04:29:41.545Z,44.54
2022-11-19T04:30:44.644Z,44.55
2022-11-19T04:31:46.825Z,44.59
2022-11-19T04:32:48.900Z,44.59
2022-11-19T04:33:51.180Z,44.57
2022-11-19T04:34:53.263Z,44.59
2022-11-19T04:35:55.612Z,44.57
2022-11-19T04:36:58.044Z,44.62
2022-11-19T04:38:00.060Z,44.59
2022-11-19T04:39:02.454Z,44.65
2022-11-19T04:40:06.403Z,44.67
2022-11-19T04:41:08.547Z,44.71
2022-11-19T04:42:10.647Z,44.71
2022-11-19T04:43:13.824Z,44.72
2022-11-19T04:44:15.968Z,44.72
2022-11-19T04:45:19.711Z,44.73
2022-11-19T04:46:22.876Z,44.71
2022-11-19T04:47:25.121Z,44.72
2022-11-19T04:48:27.119Z,44.74
2022-11-19T04:49:29.311Z,44.74
2022-11-19T04:50:31.660Z,44.77
2022-11-19T04:51:34.017Z,44.85
2022-11-19T04:52:40.809Z,44.78
2022-11-19T04:53:40.684Z,44.79
2022-11-19T04:54:42.785Z,44.80
2022-11-19T04:55:44.836Z,44.79
2022-11-19T04:56:46.999Z,44.80
2022-11-19T04:57:49.047Z,44.83
2022-11-19T04:58:51.126Z,44.84
2022-11-19T04:59:53.092Z,44.83
2022-11-19T05:00:55.700Z,44.84
2022-11-19T05:01:57.868Z,44.76
2022-11-19T05:03:01.271Z,44.76
2022-11-19T05:04:03.656Z,44.86
2022-11-19T05:05:07.028Z,44.86
2022-11-19T05:06:10.506Z,44.88
2022-11-19T05:07:12.584Z,44.89
2022-11-19T05:08:15.586Z,44.88
2022-11-19T05:09:18.382Z,44.89
2022-11-19T05:10:20.889Z,44.88
2022-11-19T05:11:23.457Z,44.90
2022-11-19T05:12:25.407Z,44.89
2022-11-19T05:13:28.436Z,44.91
2022-11-19T05:14:31.440Z,44.91
2022-11-19T05:15:34.079Z,44.92
2022-11-19T05:16:37.267Z,44.95
2022-11-19T05:17:39.360Z,44.97
2022-11-19T05:18:41.455Z,44.97
2022-11-19T05:19:44.508Z,44.97
2022-11-19T05:20:48.146Z,44.97
2022-11-19T05:21:50.932Z,44.96
2022-11-19T05:22:53.563Z,45.00
2022-11-19T05:23:56.198Z,45.00
2022-11-19T05:24:58.830Z,45.03
2022-11-19T05:26:01.281Z,45.03
2022-11-19T05:27:03.619Z,45.07
2022-11-19T05:28:06.110Z,45.08
2022-11-19T05:29:08.268Z,45.09
2022-11-19T05:30:11.855Z,44.94
2022-11-19T05:31:14.010Z,44.94
2022-11-19T05:32:16.092Z,45.10
2022-11-19T05:33:18.166Z,45.09
2022-11-19T05:34:20.249Z,45.17
2022-11-19T05:35:23.721Z,45.20
2022-11-19T05:36:26.232Z,45.10
2022-11-19T05:37:29.246Z,45.10
2022-11-19T05:38:31.704Z,45.20
2022-11-19T05:39:34.747Z,45.19
2022-11-19T05:40:37.403Z,45.26
2022-11-19T05:41:40.228Z,45.24
2022-11-19T05:42:42.305Z,45.23
2022-11-19T05:43:45.402Z,45.21
2022-11-19T05:44:47.571Z,45.24
2022-11-19T05:45:49.635Z,45.26
2022-11-19T05:46:52.476Z,45.25
2022-11-19T05:47:55.748Z,45.28
2022-11-19T05:48:58.364Z,45.25
2022-11-19T05:50:01.496Z,45.26
2022-11-19T05:51:03.927Z,45.26
2022-11-19T05:52:06.047Z,45.29
2022-11-19T05:53:08.976Z,45.31
2022-11-19T05:54:11.764Z,45.29
2022-11-19T05:55:14.330Z,45.31
2022-11-19T05:56:17.535Z,45.31
2022-11-19T05:57:19.612Z,45.35
2022-11-19T05:58:22.372Z,45.35
2022-11-19T05:59:24.341Z,45.36
2022-11-19T06:00:26.440Z,45.36
2022-11-19T06:01:30.224Z,45.35
2022-11-19T06:02:33.266Z,45.37
2022-11-19T06:03:35.485Z,45.38
2022-11-19T06:04:38.552Z,45.43
2022-11-19T06:05:40.952Z,45.43
2022-11-19T06:06:45.422Z,45.45
2022-11-19T06:07:47.591Z,45.49
2022-11-19T06:08:50.709Z,45.53
2022-11-19T06:09:53.186Z,45.54
2022-11-19T06:10:55.373Z,45.54
2022-11-19T06:11:57.681Z,45.65
2022-11-19T06:12:59.778Z,45.71
2022-11-19T06:14:02.008Z,45.74
2022-11-19T06:15:06.944Z,45.78
2022-11-19T06:16:09.299Z,45.80
2022-11-19T06:17:12.199Z,45.82
2022-11-19T06:18:14.340Z,45.85
2022-11-19T06:19:17.637Z,45.88
2022-11-19T06:20:20.661Z,45.92
2022-11-19T06:21:22.872Z,45.94
2022-11-19T06:22:25.703Z,45.96
2022-11-19T06:23:29.753Z,46.02
2022-11-19T06:24:31.905Z,46.09
2022-11-19T06:25:35.097Z,46.16
2022-11-19T06:26:37.759Z,46.20
2022-11-19T06:27:39.728Z,46.22
2022-11-19T06:28:42.034Z,46.27
2022-11-19T06:29:45.203Z,46.35
2022-11-19T06:30:48.461Z,46.39
2022-11-19T06:31:50.571Z,46.48
2022-11-19T06:32:52.859Z,46.54
2022-11-19T06:33:55.434Z,46.54
2022-11-19T06:34:57.842Z,46.57
2022-11-19T06:36:00.452Z,46.59
2022-11-19T06:37:02.783Z,46.60
2022-11-19T06:38:04.910Z,46.62
2022-11-19T06:39:08.111Z,46.67
2022-11-19T06:40:14.204Z,46.61
2022-11-19T06:41:16.702Z,46.60
2022-11-19T06:42:20.160Z,46.59
2022-11-19T06:43:23.977Z,46.57
2022-11-19T06:44:27.051Z,46.69
2022-11-19T06:45:29.214Z,46.77
2022-11-19T06:46:31.321Z,46.79
2022-11-19T06:47:46.534Z,46.83
2022-11-19T06:48:48.643Z,46.85
2022-11-19T06:49:51.647Z,46.85
2022-11-19T06:50:53.784Z,46.85
2022-11-19T06:51:56.144Z,46.84
2022-11-19T06:52:58.733Z,46.85
2022-11-19T06:54:01.392Z,46.72
2022-11-19T06:55:04.177Z,46.72
2022-11-19T06:56:07.771Z,46.89
2022-11-19T06:57:10.399Z,46.84
2022-11-19T06:58:12.442Z,46.90
2022-11-19T06:59:14.953Z,46.88
2022-11-19T07:00:17.862Z,47.13
2022-11-19T07:01:20.078Z,47.13
2022-11-19T07:02:23.450Z,46.93
2022-11-19T07:03:25.579Z,46.92
2022-11-19T07:04:27.675Z,46.98
2022-11-19T07:05:30.110Z,47.05
2022-11-19T07:06:32.337Z,47.07
2022-11-19T07:07:34.386Z,47.07
2022-11-19T07:08:37.920Z,47.03
2022-11-19T07:09:40.055Z,47.00
2022-11-19T07:10:43.475Z,46.93
2022-11-19T07:11:46.148Z,47.03
2022-11-19T07:12:48.564Z,47.04
2022-11-19T07:13:51.999Z,46.98
2022-11-19T07:14:58.505Z,47.06
2022-11-19T07:16:01.846Z,47.10
2022-11-19T07:17:04.834Z,47.10
2022-11-19T07:18:06.957Z,47.14
2022-11-19T07:19:09.377Z,47.12
2022-11-19T07:20:13.884Z,47.17
2022-11-19T07:21:16.503Z,47.30
2022-11-19T07:22:18.772Z,47.31
2022-11-19T07:23:20.756Z,47.28
2022-11-19T07:24:23.594Z,47.27
2022-11-19T07:25:26.870Z,47.31
2022-11-19T07:26:31.294Z,47.45
2022-11-19T07:27:34.296Z,47.52
2022-11-19T07:28:36.879Z,47.58
2022-11-19T07:29:39.287Z,47.62
2022-11-19T07:30:41.502Z,47.70
2022-11-19T07:31:43.640Z,47.68
2022-11-19T07:32:45.745Z,47.72
2022-11-19T07:33:47.806Z,47.75
2022-11-19T07:34:49.809Z,47.77
2022-11-19T07:35:51.878Z,47.77
2022-11-19T07:36:54.304Z,47.80
2022-11-19T07:37:56.852Z,47.90
2022-11-19T07:38:58.929Z,47.91
2022-11-19T07:40:01.486Z,47.92
2022-11-19T07:41:04.218Z,47.89
2022-11-19T07:42:07.718Z,47.94
2022-11-19T07:43:10.536Z,47.89
2022-11-19T07:44:13.263Z,47.89
2022-11-19T07:46:30.898Z,47.89
2022-11-19T07:47:34.609Z,47.90
2022-11-19T07:48:36.770Z,47.87
2022-11-19T07:49:39.865Z,47.90
2022-11-19T07:50:42.281Z,47.92
2022-11-19T07:51:44.454Z,47.92
2022-11-19T07:52:47.986Z,47.89
2022-11-19T07:53:51.666Z,47.87
2022-11-19T07:54:53.884Z,47.89
2022-11-19T07:56:00.611Z,47.84
2022-11-19T07:57:02.904Z,47.86
2022-11-19T07:58:06.029Z,47.83
2022-11-19T07:59:08.179Z,47.78
2022-11-19T08:00:12.195Z,47.69
2022-11-19T08:01:21.488Z,47.72
2022-11-19T08:02:23.652Z,47.69
2022-11-19T08:03:26.298Z,47.68
2022-11-19T08:04:28.877Z,47.69
2022-11-19T08:05:30.974Z,47.72
2022-11-19T08:06:33.493Z,47.70
2022-11-19T08:07:38.571Z,47.68
2022-11-19T08:08:42.044Z,47.70
2022-11-19T08:09:44.109Z,47.72
2022-11-19T08:10:46.271Z,47.73
2022-11-19T08:11:48.944Z,47.70
2022-11-19T08:12:50.915Z,47.69
2022-11-19T08:13:53.107Z,47.69
2022-11-19T08:14:55.768Z,47.71
2022-11-19T08:16:02.094Z,47.72
2022-11-19T08:17:05.340Z,47.70
2022-11-19T08:18:09.256Z,47.70
2022-11-19T08:19:13.463Z,47.76
2022-11-19T08:20:16.879Z,47.70
2022-11-19T08:21:19.046Z,47.74
2022-11-19T08:22:21.056Z,47.71
2022-11-19T08:23:23.503Z,47.70
2022-11-19T08:24:26.616Z,47.67
2022-11-19T08:25:29.472Z,47.67
2022-11-19T08:26:32.745Z,47.66
2022-11-19T08:27:34.900Z,47.62
2022-11-19T08:28:38.716Z,47.72
2022-11-19T08:29:41.658Z,47.73
2022-11-19T08:30:43.876Z,47.74
2022-11-19T08:31:46.654Z,47.72
2022-11-19T08:32:49.144Z,47.69
2022-11-19T08:33:51.316Z,47.62
2022-11-19T08:34:53.333Z,47.64
2022-11-19T08:35:55.344Z,47.62
2022-11-19T08:36:57.545Z,47.63
2022-11-19T08:38:00.051Z,47.61
2022-11-19T08:39:02.756Z,47.59
2022-11-19T08:40:07.323Z,47.56
2022-11-19T08:41:09.874Z,47.56
2022-11-19T08:42:12.473Z,47.56
2022-11-19T08:43:15.217Z,47.56
2022-11-19T08:44:18.571Z,47.54
2022-11-19T08:45:21.201Z,47.56
2022-11-19T08:46:24.170Z,47.54
2022-11-19T08:47:27.330Z,47.53
2022-11-19T08:48:30.250Z,47.53
2022-11-19T08:49:32.708Z,47.52
2022-11-19T08:50:35.792Z,47.53
2022-11-19T08:51:38.612Z,47.51
2022-11-19T08:52:40.945Z,47.64
2022-11-19T08:53:43.035Z,47.67
2022-11-19T08:54:46.154Z,47.71
2022-11-19T08:55:51.209Z,47.80
2022-11-19T08:56:53.353Z,47.81
2022-11-19T08:58:04.095Z,47.74
2022-11-19T08:59:07.295Z,47.69
2022-11-19T09:00:12.698Z,47.70
2022-11-19T09:01:16.837Z,47.66
2022-11-19T09:02:19.981Z,47.69
2022-11-19T09:03:22.481Z,47.68
2022-11-19T09:04:24.977Z,47.70
2022-11-19T09:05:27.079Z,47.68
2022-11-19T09:06:30.347Z,47.62
2022-11-19T09:07:33.058Z,47.60
2022-11-19T09:08:35.654Z,47.61
2022-11-19T09:09:37.752Z,47.59
2022-11-19T09:10:39.906Z,47.56
2022-11-19T09:11:43.111Z,47.55
2022-11-19T09:12:45.637Z,47.53
2022-11-19T09:13:48.402Z,47.53
2022-11-19T09:14:51.505Z,47.59
2022-11-19T09:15:53.621Z,47.59
2022-11-19T09:16:55.696Z,47.63
2022-11-19T09:17:58.078Z,47.62
2022-11-19T09:19:00.505Z,47.58
2022-11-19T09:20:03.314Z,47.56
2022-11-19T09:21:06.350Z,47.54
2022-11-19T09:22:08.519Z,47.56
2022-11-19T09:23:10.723Z,47.51
2022-11-19T09:24:13.143Z,47.52
2022-11-19T09:25:15.832Z,47.55
2022-11-19T09:26:18.292Z,47.54
2022-11-19T09:27:21.347Z,47.55
2022-11-19T09:28:23.739Z,47.56
2022-11-19T09:29:25.845Z,47.54
2022-11-19T09:30:28.044Z,47.55
2022-11-19T09:31:30.571Z,47.55
2022-11-19T09:32:33.642Z,47.52
2022-11-19T09:33:37.274Z,47.49
2022-11-19T09:34:39.844Z,47.52
2022-11-19T09:35:42.859Z,47.49
2022-11-19T09:36:44.998Z,47.48
2022-11-19T09:37:47.563Z,47.49
2022-11-19T09:38:49.647Z,47.52
2022-11-19T09:39:52.167Z,47.52
2022-11-19T09:40:55.837Z,47.57
2022-11-19T09:42:01.702Z,47.57
2022-11-19T09:43:15.176Z,47.57
2022-11-19T09:44:28.950Z,47.56
2022-11-19T09:45:58.875Z,47.57
2022-11-19T09:47:24.739Z,47.58
2022-11-19T09:48:37.132Z,47.58
2022-11-19T09:49:49.097Z,47.62
2022-11-19T09:50:54.476Z,47.70
2022-11-19T09:52:00.919Z,47.82
2022-11-19T09:53:12.961Z,47.79
2022-11-19T09:54:18.050Z,47.78
2022-11-19T09:55:26.871Z,47.77
2022-11-19T09:57:53.852Z,47.76
2022-11-19T09:58:56.797Z,47.73
2022-11-19T10:00:00.501Z,47.72
2022-11-19T10:01:03.176Z,47.73
2022-11-19T10:03:33.681Z,47.71
2022-11-19T10:04:35.763Z,47.68
2022-11-19T10:06:08.300Z,47.67
2022-11-19T10:07:43.866Z,47.66
2022-11-19T10:09:07.047Z,47.58
2022-11-19T10:10:30.861Z,47.51
2022-11-19T10:12:03.950Z,47.52
2022-11-19T10:13:26.092Z,47.55
2022-11-19T10:14:44.245Z,47.54
2022-11-19T10:16:06.179Z,47.56
2022-11-19T10:17:43.138Z,47.60
2022-11-19T10:18:58.510Z,47.65
2022-11-19T10:20:20.155Z,47.68
2022-11-19T10:21:44.468Z,47.69
2022-11-19T10:22:58.409Z,47.70
2022-11-19T10:24:14.828Z,47.73
2022-11-19T10:25:25.876Z,47.73
2022-11-19T10:26:34.037Z,47.77
2022-11-19T10:27:40.302Z,47.78
2022-11-19T10:30:07.752Z,47.84
2022-11-19T10:32:46.477Z,47.84
2022-11-19T10:33:52.004Z,47.83
2022-11-19T10:34:57.061Z,47.82
2022-11-19T10:36:10.130Z,47.88
2022-11-19T10:37:16.231Z,47.87
2022-11-19T10:38:27.817Z,47.85
2022-11-19T10:41:17.860Z,47.81
2022-11-19T10:42:34.800Z,47.78
2022-11-19T10:43:40.075Z,47.76
2022-11-19T10:45:03.323Z,47.82
2022-11-19T10:46:06.763Z,47.82
2022-11-19T10:48:44.858Z,47.81
2022-11-19T10:49:52.232Z,47.76
2022-11-19T10:50:55.322Z,47.79
2022-11-19T10:51:58.448Z,47.80
2022-11-19T10:53:32.001Z,47.82
2022-11-19T10:54:34.833Z,47.78
2022-11-19T10:55:40.952Z,47.72
2022-11-19T10:56:44.509Z,47.67
2022-11-19T10:57:46.681Z,47.71
2022-11-19T10:58:52.621Z,47.71
2022-11-19T10:59:54.799Z,47.66
2022-11-19T11:00:58.507Z,47.73
2022-11-19T11:02:07.331Z,47.74
2022-11-19T11:04:37.814Z,47.80
2022-11-19T11:07:12.354Z,47.82
2022-11-19T11:08:16.099Z,47.82
2022-11-19T11:09:37.594Z,47.83
2022-11-19T11:10:41.403Z,47.84
2022-11-19T11:11:43.813Z,47.84
2022-11-19T11:12:45.898Z,47.82
2022-11-19T11:13:48.941Z,47.85
2022-11-19T11:14:51.662Z,47.85
2022-11-19T11:15:54.344Z,47.86
2022-11-19T11:16:56.568Z,47.85
2022-11-19T11:18:05.952Z,47.85
2022-11-19T11:19:12.232Z,47.82
2022-11-19T11:20:21.072Z,47.74
2022-11-19T11:21:35.165Z,47.72
2022-11-19T11:22:37.419Z,47.72
2022-11-19T11:23:53.078Z,47.73
2022-11-19T11:24:56.649Z,47.65
2022-11-19T11:26:07.878Z,47.59
2022-11-19T11:28:31.530Z,47.53
2022-11-19T11:29:34.490Z,47.58
2022-11-19T11:30:36.975Z,47.65
2022-11-19T11:31:44.846Z,47.71
2022-11-19T11:32:46.995Z,47.81
2022-11-19T11:33:55.714Z,47.83
2022-11-19T11:35:00.297Z,47.75
2022-11-19T11:36:10.961Z,47.64
2022-11-19T11:37:13.132Z,47.61
2022-11-19T11:38:15.563Z,47.58
2022-11-19T11:39:28.813Z,47.53
2022-11-19T11:40:32.310Z,47.60
2022-11-19T11:42:42.796Z,47.50
2022-11-19T11:44:00.757Z,47.49
2022-11-19T11:45:03.854Z,47.48
2022-11-19T11:46:09.112Z,47.45
2022-11-19T11:47:14.038Z,47.43
2022-11-19T11:48:19.053Z,47.43
2022-11-19T11:49:30.222Z,47.39
2022-11-19T11:50:32.467Z,47.40
2022-11-19T11:51:36.575Z,47.38
2022-11-19T11:52:41.945Z,47.37
2022-11-19T11:53:44.121Z,47.40
2022-11-19T11:56:09.772Z,47.43
2022-11-19T11:57:15.400Z,47.40
2022-11-19T11:59:39.623Z,47.32
2022-11-19T12:00:45.760Z,47.33
2022-11-19T12:02:05.641Z,47.38
2022-11-19T12:03:11.142Z,47.38
2022-11-19T12:04:14.019Z,47.34
2022-11-19T12:05:16.558Z,46.90
2022-11-19T12:06:20.118Z,46.35
2022-11-19T12:09:09.709Z,44.62
2022-11-19T12:10:35.265Z,44.39
2022-11-19T12:11:56.417Z,44.63
2022-11-19T12:13:36.292Z,41.62
2022-11-19T12:16:32.230Z,41.50
2022-11-19T12:17:53.461Z,42.32
2022-11-19T12:19:26.307Z,43.06
2022-11-19T12:20:36.068Z,43.43
2022-11-19T12:22:04.713Z,41.74
2022-11-19T12:23:14.067Z,44.29
2022-11-19T12:24:33.350Z,40.87
2022-11-19T12:25:39.242Z,42.74
2022-11-19T12:26:45.260Z,44.96
2022-11-19T12:28:00.211Z,46.27
2022-11-19T12:29:27.435Z,46.30
2022-11-19T12:30:49.356Z,46.10
2022-11-19T12:31:56.328Z,47.21
2022-11-19T12:33:02.219Z,48.11
2022-11-19T12:34:13.794Z,47.96
2022-11-19T12:37:05.743Z,47.07
2022-11-19T12:38:26.477Z,41.19
2022-11-19T12:39:54.707Z,40.39
2022-11-19T12:43:04.600Z,42.90
2022-11-19T12:44:37.857Z,42.54
2022-11-19T12:45:54.790Z,44.24
2022-11-19T12:48:22.895Z,42.57
2022-11-19T12:49:28.714Z,44.01
2022-11-19T12:50:35.405Z,44.24
2022-11-19T12:51:44.191Z,43.91
2022-11-19T12:53:11.666Z,37.65
2022-11-19T12:54:30.319Z,40.78
2022-11-19T12:55:46.235Z,41.97
2022-11-19T12:57:04.607Z,41.73
2022-11-19T12:58:14.129Z,42.24
2022-11-19T13:01:04.544Z,38.31
2022-11-19T13:02:17.111Z,37.31
2022-11-19T13:03:27.925Z,40.40
2022-11-19T13:06:02.828Z,42.59
2022-11-19T13:07:12.742Z,40.97
2022-11-19T13:08:27.343Z,41.31
2022-11-19T13:09:49.732Z,44.00
2022-11-19T13:11:20.806Z,44.46
2022-11-19T13:12:26.895Z,42.79
2022-11-19T13:13:29.980Z,42.60
2022-11-19T13:14:38.949Z,43.06
2022-11-19T13:16:00.762Z,43.27
2022-11-19T13:17:04.319Z,44.87
2022-11-19T13:18:09.392Z,42.51
2022-11-19T13:20:49.493Z,42.23
2022-11-19T13:22:03.406Z,43.30
2022-11-19T13:23:06.033Z,39.83
2022-11-19T13:24:15.341Z,42.00
2022-11-19T13:25:23.675Z,42.79
2022-11-19T13:26:28.723Z,41.96
2022-11-19T13:27:31.314Z,41.10
2022-11-19T13:28:37.146Z,41.87
2022-11-19T13:29:42.552Z,41.83
2022-11-19T13:30:59.218Z,43.01
2022-11-19T13:32:10.557Z,43.73
2022-11-19T13:33:25.200Z,43.01
2022-11-19T13:34:48.215Z,41.98
2022-11-19T13:37:45.995Z,42.03
2022-11-19T13:38:51.806Z,41.51
2022-11-19T13:39:57.540Z,41.70
2022-11-19T13:41:15.967Z,41.69
2022-11-19T13:42:18.782Z,42.02
2022-11-19T13:43:36.986Z,41.95
2022-11-19T13:44:25.603Z,43.30
2022-11-19T13:45:28.555Z,44.10
2022-11-19T13:46:45.200Z,44.29
2022-11-19T13:47:58.220Z,44.34
2022-11-19T13:49:04.911Z,41.93
2022-11-19T13:51:34.967Z,42.31
2022-11-19T13:54:03.287Z,42.75
2022-11-19T13:55:05.999Z,44.36
2022-11-19T13:56:12.727Z,45.02
2022-11-19T13:57:26.355Z,44.03
2022-11-19T13:58:34.590Z,42.92
2022-11-19T13:59:45.426Z,44.57
2022-11-19T14:02:47.927Z,42.53
2022-11-19T14:04:21.890Z,41.97
2022-11-19T14:06:00.098Z,43.50
2022-11-19T14:07:28.084Z,43.23
2022-11-19T14:08:43.611Z,43.21
2022-11-19T14:09:50.726Z,44.08
2022-11-19T14:11:20.044Z,44.36
2022-11-19T14:12:35.177Z,44.61
2022-11-19T14:13:57.533Z,44.12
2022-11-19T14:15:19.755Z,43.50
2022-11-19T14:16:30.086Z,43.86
2022-11-19T14:19:00.659Z,42.81
2022-11-19T14:20:06.754Z,43.56
2022-11-19T14:22:54.153Z,44.22
2022-11-19T14:23:58.391Z,44.50
2022-11-19T14:25:05.817Z,43.95
2022-11-19T14:26:08.582Z,43.66
2022-11-19T14:28:47.589Z,44.19
2022-11-19T14:31:08.500Z,44.07
2022-11-19T14:32:16.186Z,44.02
2022-11-19T14:33:42.212Z,43.95
2022-11-19T14:35:04.594Z,43.84
2022-11-19T14:37:53.199Z,43.87
2022-11-19T14:38:56.626Z,44.12
2022-11-19T14:40:06.159Z,44.25
2022-11-19T14:41:29.929Z,44.21
2022-11-19T14:42:32.607Z,44.23
2022-11-19T14:43:55.229Z,44.17
2022-11-19T14:45:04.175Z,44.13
2022-11-19T14:46:14.969Z,43.97
2022-11-19T14:47:32.839Z,43.94
2022-11-19T14:48:42.487Z,43.83
2022-11-19T14:49:46.626Z,43.91
2022-11-19T14:51:08.691Z,43.76
2022-11-19T14:52:32.144Z,43.86
2022-11-19T14:53:36.211Z,43.99
2022-11-19T14:54:41.348Z,43.75
2022-11-19T14:55:43.743Z,43.80
2022-11-19T14:56:48.490Z,43.54
2022-11-19T14:58:00.139Z,42.96
2022-11-19T14:59:15.377Z,42.89
2022-11-19T15:00:22.509Z,42.51
2022-11-19T15:01:24.972Z,42.88
2022-11-19T15:02:36.522Z,42.97
2022-11-19T15:03:40.024Z,42.92
2022-11-19T15:04:46.747Z,42.39
2022-11-19T15:05:50.411Z,41.67
2022-11-19T15:06:52.810Z,40.12
2022-11-19T15:08:19.029Z,40.60
2022-11-19T15:09:54.703Z,40.88
2022-11-19T15:11:08.944Z,41.73
2022-11-19T15:12:11.831Z,41.84
2022-11-19T15:13:24.728Z,41.68
2022-11-19T15:14:39.632Z,41.34
2022-11-19T15:15:42.426Z,42.07
2022-11-19T15:16:45.619Z,41.13
2022-11-19T15:18:03.870Z,40.27
2022-11-19T15:19:17.279Z,41.43